Time;durP1;ratioP1;P1;durP2;ratioP2;P2;SDS_P1;SDS_P2;PMS_P1;PMS_P2;Temp;Humidity;BMP_temperature;BMP_pressure;BME280_temperature;BME280_humidity;BME280_pressure;Samples;Min_cycle;Max_cycle;Signal;HPM_P1;HPM_P2
2021/07/20 00:10:55;;;;;;;5.70;2.40;;;;;;;23.13;49.88;101502.97;1208121;23;21465;-84
2021/07/20 00:35:22;;;;;;;8.63;2.70;;;;;;;22.75;52.06;101491.97;1137839;23;20171;-85
2021/07/20 00:53:48;;;;;;;6.72;2.75;;;;;;;22.48;50.70;101482.06;1207172;23;21458;-83
2021/07/20 00:56:41;;;;;;;6.03;2.80;;;;;;;22.45;50.85;101479.56;1201342;23;21452;-84
2021/07/20 01:18:15;;;;;;;6.80;2.80;;;;;;;22.14;51.31;101490.31;1214421;23;22087;-83
2021/07/20 01:27:11;;;;;;;7.50;2.67;;;;;;;22.02;51.73;101487.41;1209878;23;21408;-84
2021/07/20 01:48:28;;;;;;;6.65;2.53;;;;;;;21.78;52.02;101472.88;1209967;23;21457;-83
2021/07/20 01:51:23;;;;;;;7.72;2.60;;;;;;;21.74;52.68;101477.50;1206170;23;21457;-83
2021/07/20 02:09:41;;;;;;;7.75;2.63;;;;;;;21.54;53.76;101464.47;1211861;23;21446;-83
2021/07/20 02:34:39;;;;;;;7.20;3.33;;;;;;;21.34;55.83;101462.97;1132846;23;20185;-84
2021/07/20 02:49:56;;;;;;;7.40;2.67;;;;;;;21.19;53.83;101463.78;1204333;23;21475;-84
2021/07/20 02:58:53;;;;;;;4.53;2.00;;;;;;;21.10;54.10;101469.59;1208970;23;21785;-83
2021/07/20 03:17:27;;;;;;;9.80;3.88;;;;;;;20.93;54.89;101466.06;1206335;23;21501;-83
2021/07/20 03:20:23;;;;;;;6.32;2.35;;;;;;;20.91;55.01;101467.06;1196129;23;21588;-84
2021/07/20 03:29:20;;;;;;;6.15;1.98;;;;;;;20.84;56.15;101471.84;1207415;23;21437;-83
2021/07/20 03:35:01;;;;;;;5.55;2.70;;;;;;;20.82;56.03;101475.50;1206890;23;21470;-83
2021/07/20 04:02:58;;;;;;;6.07;2.53;;;;;;;20.59;56.04;101466.13;1213675;23;21972;-84
2021/07/20 04:09:08;;;;;;;5.35;2.20;;;;;;;20.54;56.25;101476.13;1208566;23;21457;-84
2021/07/20 04:27:39;;;;;;;5.57;2.22;;;;;;;20.39;56.68;101473.28;1206184;23;21498;-83
2021/07/20 04:30:39;;;;;;;6.93;2.83;;;;;;;20.38;57.12;101470.72;1202493;23;22159;-84
2021/07/20 04:55:10;;;;;;;8.18;3.60;;;;;;;20.25;57.99;101470.47;1207956;23;21452;-83
2021/07/20 05:10:22;;;;;;;5.65;2.60;;;;;;;20.24;58.44;101489.97;1208636;23;21457;-84
2021/07/20 05:19:37;;;;;;;8.52;2.80;;;;;;;20.28;58.52;101490.69;1209396;23;22017;-84
2021/07/20 05:22:40;;;;;;;6.60;3.10;;;;;;;20.29;58.92;101500.34;1197774;23;21947;-83
2021/07/20 05:34:42;;;;;;;5.25;2.45;;;;;;;20.34;60.36;101496.53;1132351;23;20196;-84
2021/07/20 05:53:08;;;;;;;5.50;2.20;;;;;;;20.47;59.15;101495.00;1214031;23;21484;-84
2021/07/20 06:08:33;;;;;;;4.93;1.40;;;;;;;20.62;59.55;101495.13;1207766;23;21937;-83
2021/07/20 06:11:27;;;;;;;4.13;1.42;;;;;;;20.69;59.86;101512.47;1210423;23;21475;-84
2021/07/20 06:23:46;;;;;;;3.90;1.10;;;;;;;20.89;60.26;101509.63;1207355;23;22174;-84
2021/07/20 06:35:56;;;;;;;4.28;1.67;;;;;;;21.11;60.51;101519.09;1212041;23;21426;-84
2021/07/20 06:38:47;;;;;;;2.88;1.17;;;;;;;21.16;60.92;101523.22;1203927;23;21476;-85
2021/07/20 06:50:56;;;;;;;2.83;1.10;;;;;;;21.40;61.48;101521.06;1208879;23;21482;-84
2021/07/20 06:53:50;;;;;;;4.57;1.95;;;;;;;21.46;61.82;101519.88;1212036;22;21501;-84
2021/07/20 07:18:03;;;;;;;3.13;1.08;;;;;;;21.73;64.45;101496.19;1213005;23;20194;-82
2021/07/20 07:20:31;;;;;;;2.03;0.80;;;;;;;21.95;64.72;101528.63;1376405;22;20179;-76
2021/07/20 07:23:00;;;;;;;3.45;1.30;;;;;;;22.02;64.04;101523.78;3557721;40;20084;-76
2021/07/20 07:25:28;;;;;;;2.97;0.90;;;;;;;22.02;64.79;101519.31;3571778;40;20717;-76
2021/07/20 07:27:58;;;;;;;2.80;1.10;;;;;;;22.13;63.49;101524.06;3557923;40;20162;-76
2021/07/20 07:30:28;;;;;;;3.30;1.08;;;;;;;22.15;64.15;101518.63;3555199;40;20339;-76
2021/07/20 07:32:59;;;;;;;3.05;0.98;;;;;;;22.22;63.33;101514.69;3554279;40;20089;-76
2021/07/20 07:35:30;;;;;;;3.45;1.08;;;;;;;22.30;62.72;101528.38;3563607;40;20053;-76
2021/07/20 07:37:59;;;;;;;4.43;0.93;;;;;;;22.35;62.93;101525.47;3565852;40;20530;-76
2021/07/20 07:40:28;;;;;;;3.28;1.13;;;;;;;22.37;63.08;101523.59;3556385;40;20089;-77
2021/07/20 07:42:58;;;;;;;3.67;1.27;;;;;;;22.45;62.88;101526.63;3570575;40;20421;-76
2021/07/20 07:45:26;;;;;;;3.72;1.00;;;;;;;22.47;62.53;101527.41;3560285;40;20106;-76
2021/07/20 07:47:54;;;;;;;3.50;0.95;;;;;;;22.52;62.67;101531.50;3573015;40;20061;-75
2021/07/20 07:50:21;;;;;;;1.85;1.00;;;;;;;22.59;62.65;101525.81;3567836;40;20139;-76
2021/07/20 07:52:50;;;;;;;3.85;1.30;;;;;;;22.67;62.69;101524.41;3562066;40;20061;-76
2021/07/20 07:55:22;;;;;;;2.72;1.17;;;;;;;22.73;61.97;101525.84;3558472;40;20147;-76
2021/07/20 07:57:50;;;;;;;4.35;1.70;;;;;;;22.80;61.98;101527.16;3553530;40;20087;-75
2021/07/20 08:00:18;;;;;;;2.45;1.08;;;;;;;22.86;61.89;101526.81;3573074;40;20057;-76
2021/07/20 08:02:51;;;;;;;2.90;1.50;;;;;;;22.98;61.15;101536.75;3539963;40;20081;-75
2021/07/20 08:05:22;;;;;;;5.68;1.30;;;;;;;23.02;61.46;101530.28;3573095;40;20077;-76
2021/07/20 08:07:49;;;;;;;4.72;1.40;;;;;;;23.04;61.19;101531.03;3562203;40;20056;-76
2021/07/20 08:10:19;;;;;;;5.82;1.50;;;;;;;23.15;61.69;101532.19;3562090;40;20669;-76
2021/07/20 08:12:47;;;;;;;4.22;1.13;;;;;;;23.17;61.14;101524.97;3559982;40;20609;-76
2021/07/20 08:15:15;;;;;;;3.88;1.10;;;;;;;23.26;60.47;101532.34;3555751;40;20098;-76
2021/07/20 08:17:43;;;;;;;4.97;1.60;;;;;;;23.31;60.99;101532.91;3557500;40;20354;-76
2021/07/20 08:20:14;;;;;;;3.97;1.50;;;;;;;23.41;60.44;101528.72;3569649;40;20131;-76
2021/07/20 08:22:43;;;;;;;4.28;1.35;;;;;;;23.43;60.05;101520.66;3561989;40;20060;-76
2021/07/20 08:25:24;;;;;;;4.15;1.63;;;;;;;23.53;59.88;101532.44;3550017;40;20087;-76
2021/07/20 08:27:57;;;;;;;4.88;1.70;;;;;;;23.58;59.88;101526.81;3546358;40;20069;-76
2021/07/20 08:30:28;;;;;;;5.38;2.05;;;;;;;23.63;59.66;101533.59;3550778;40;20061;-76
2021/07/20 08:32:58;;;;;;;4.18;1.48;;;;;;;23.70;59.59;101528.72;3557980;40;20078;-76
2021/07/20 08:35:28;;;;;;;5.80;1.60;;;;;;;23.77;59.19;101535.34;3558777;40;20506;-76
2021/07/20 08:38:05;;;;;;;5.03;1.63;;;;;;;23.84;59.79;101536.69;3551286;40;20322;-76
2021/07/20 08:40:42;;;;;;;7.30;2.05;;;;;;;23.92;58.69;101537.00;3543250;40;20066;-76
2021/07/20 08:43:27;;;;;;;3.97;1.50;;;;;;;24.01;58.08;101533.75;3540057;40;20080;-76
2021/07/20 08:46:13;;;;;;;3.90;1.33;;;;;;;24.06;58.56;101536.97;3540086;40;20092;-76
2021/07/20 08:49:08;;;;;;;3.38;1.60;;;;;;;24.14;58.27;101523.13;3555036;40;20369;-76
2021/07/20 08:51:58;;;;;;;3.92;1.70;;;;;;;24.26;57.45;101535.66;3555980;40;20061;-76
2021/07/20 08:54:47;;;;;;;4.00;1.60;;;;;;;24.29;58.01;101537.28;3557968;40;20067;-76
2021/07/20 08:57:23;;;;;;;3.05;1.50;;;;;;;24.36;57.71;101533.25;3550720;40;20170;-76
2021/07/20 09:00:07;;;;;;;5.70;2.17;;;;;;;24.47;57.35;101540.53;3551595;40;20061;-75
2021/07/20 09:02:47;;;;;;;2.90;1.50;;;;;;;24.48;57.56;101529.75;3545957;40;20061;-76
2021/07/20 09:05:25;;;;;;;2.28;1.20;;;;;;;24.57;57.07;101526.44;3553581;40;20057;-76
2021/07/20 09:07:59;;;;;;;3.85;1.30;;;;;;;24.60;57.59;101525.41;3548490;40;20767;-75
2021/07/20 09:10:42;;;;;;;3.78;1.13;;;;;;;24.72;56.92;101524.53;3547511;40;20410;-76
2021/07/20 09:13:14;;;;;;;3.20;1.35;;;;;;;24.76;57.40;101531.38;3543229;40;20065;-76
2021/07/20 09:15:52;;;;;;;2.15;1.17;;;;;;;24.87;57.47;101530.63;3554701;40;20069;-76
2021/07/20 09:18:36;;;;;;;3.30;1.20;;;;;;;24.95;56.94;101528.28;3542916;40;20130;-76
2021/07/20 09:21:06;;;;;;;3.42;1.25;;;;;;;24.98;57.34;101520.03;3546932;40;20116;-76
2021/07/20 09:23:44;;;;;;;2.95;1.40;;;;;;;25.09;56.52;101528.22;3553915;40;20159;-76
2021/07/20 09:26:23;;;;;;;4.28;1.58;;;;;;;25.23;56.35;101529.88;3531003;40;20050;-75
2021/07/20 09:29:00;;;;;;;3.22;1.30;;;;;;;25.39;55.80;101529.63;3547196;40;20089;-77
2021/07/20 09:31:29;;;;;;;;;;;;;;;25.71;55.49;101527.31;3551813;40;20061;-75
2021/07/20 09:33:56;;;;;;;4.93;2.03;;;;;;;25.90;55.03;101529.50;3556146;40;19969;-76
2021/07/20 09:36:31;;;;;;;3.47;1.17;;;;;;;26.28;54.45;101525.81;3549110;40;20076;-76
2021/07/20 09:39:23;;;;;;;2.53;1.30;;;;;;;26.68;54.08;101525.47;3549081;40;20088;-77
2021/07/20 09:41:54;;;;;;;4.15;1.30;;;;;;;26.97;52.21;101526.72;3547968;40;20067;-77
2021/07/20 09:44:42;;;;;;;3.35;1.52;;;;;;;27.28;51.30;101524.31;3551392;40;20061;-77
2021/07/20 09:47:40;;;;;;;3.50;1.33;;;;;;;27.83;51.54;101530.56;3553403;40;20077;-76
2021/07/20 09:50:17;;;;;;;5.15;1.17;;;;;;;28.14;51.07;101524.38;3551674;40;20071;-76
2021/07/20 09:53:27;;;;;;;8.20;1.73;;;;;;;28.55;50.17;101521.88;3547134;40;20065;-77
2021/07/20 09:56:23;;;;;;;2.72;1.40;;;;;;;28.97;49.67;101525.41;3540093;40;20423;-76
2021/07/20 09:59:27;;;;;;;3.15;1.23;;;;;;;29.35;49.12;101515.75;3554840;40;20063;-77
2021/07/20 10:01:57;;;;;;;3.60;1.33;;;;;;;29.64;47.45;101521.25;3546350;40;20055;-77
2021/07/20 10:04:43;;;;;;;5.05;1.80;;;;;;;30.10;47.54;101512.50;3548011;40;20054;-77
2021/07/20 10:07:42;;;;;;;2.83;1.33;;;;;;;30.46;46.34;101515.47;3532345;40;20143;-76
2021/07/20 10:10:16;;;;;;;3.80;1.38;;;;;;;30.81;45.12;101522.09;3565088;40;20365;-76
2021/07/20 10:12:49;;;;;;;4.60;2.13;;;;;;;31.18;44.90;101519.44;3550517;40;20080;-76
2021/07/20 10:15:19;;;;;;;4.53;1.60;;;;;;;31.39;43.50;101521.91;3558711;40;20069;-76
2021/07/20 10:17:50;;;;;;;2.17;1.20;;;;;;;31.84;43.79;101519.22;3556355;40;20059;-77
2021/07/20 10:20:20;;;;;;;3.53;1.33;;;;;;;32.15;41.81;101518.84;3550705;40;20103;-77
2021/07/20 10:23:11;;;;;;;2.50;1.27;;;;;;;32.51;41.51;101531.31;3568059;40;20052;-77
2021/07/20 10:25:59;;;;;;;2.33;1.20;;;;;;;33.01;42.43;101521.69;3564397;40;20063;-76
2021/07/20 10:28:33;;;;;;;2.67;1.40;;;;;;;33.29;39.39;101530.41;3565567;40;20049;-76
2021/07/20 10:31:08;;;;;;;3.45;1.33;;;;;;;33.68;40.87;101529.91;3548113;40;20101;-76
2021/07/20 10:33:44;;;;;;;3.95;1.42;;;;;;;33.95;38.80;101531.50;3547291;40;20057;-76
2021/07/20 10:36:49;;;;;;;3.00;1.38;;;;;;;34.37;40.09;101527.78;3549502;40;20057;-76
2021/07/20 10:39:21;;;;;;;2.60;1.30;;;;;;;34.62;36.88;101540.31;3553383;40;20059;-76
2021/07/20 10:41:57;;;;;;;3.25;1.73;;;;;;;34.89;37.27;101536.38;3550771;40;20064;-76
2021/07/20 10:44:33;;;;;;;6.63;1.55;;;;;;;35.22;37.18;101539.84;3552866;40;20068;-76
2021/07/20 10:47:05;;;;;;;2.95;1.45;;;;;;;35.50;34.77;101540.28;3568341;40;20069;-76
2021/07/20 10:50:04;;;;;;;3.83;1.50;;;;;;;35.98;36.98;101540.16;3544103;40;20072;-76
2021/07/20 10:52:43;;;;;;;4.78;1.58;;;;;;;36.18;34.06;101538.63;3563443;40;20064;-76
2021/07/20 10:55:19;;;;;;;3.47;1.30;;;;;;;36.35;34.23;101540.22;3547467;40;20069;-76
2021/07/20 10:57:56;;;;;;;5.28;1.17;;;;;;;36.59;34.47;101538.28;3549756;40;20633;-77
2021/07/20 11:00:27;;;;;;;2.70;1.42;;;;;;;36.77;32.97;101533.34;3547028;40;20115;-76
2021/07/20 11:03:11;;;;;;;2.80;1.35;;;;;;;37.21;34.09;101540.72;3564427;40;20402;-77
2021/07/20 11:05:45;;;;;;;2.67;1.60;;;;;;;37.47;31.34;101533.94;3543177;40;20081;-76
2021/07/20 11:08:13;;;;;;;2.10;1.27;;;;;;;37.63;30.60;101536.41;3551355;40;20708;-77
2021/07/20 11:10:47;;;;;;;3.08;1.60;;;;;;;38.03;31.16;101534.13;3567238;40;20424;-76
2021/07/20 11:13:28;;;;;;;4.47;1.48;;;;;;;38.30;31.15;101536.06;3533783;40;20060;-77
2021/07/20 11:15:59;;;;;;;4.38;1.48;;;;;;;38.45;30.77;101538.72;3542543;40;20072;-77
2021/07/20 11:18:33;;;;;;;3.55;1.20;;;;;;;38.76;29.75;101535.59;3552796;40;20069;-77
2021/07/20 11:21:06;;;;;;;2.97;1.55;;;;;;;38.97;28.55;101536.56;3542181;40;20062;-76
2021/07/20 11:23:37;;;;;;;3.83;1.55;;;;;;;39.36;28.30;101536.78;3549835;40;20147;-77
2021/07/20 11:26:05;;;;;;;2.05;1.20;;;;;;;39.61;27.50;101531.59;3545561;40;20929;-76
2021/07/20 11:28:33;;;;;;;2.75;1.35;;;;;;;39.95;26.99;101530.66;3556101;40;20779;-77
2021/07/20 11:31:07;;;;;;;3.47;1.50;;;;;;;40.38;26.85;101537.63;3563155;40;20064;-77
2021/07/20 11:33:42;;;;;;;4.03;1.85;;;;;;;40.73;28.23;101535.50;3548692;40;20057;-77
2021/07/20 11:36:14;;;;;;;3.42;1.23;;;;;;;40.99;26.78;101539.25;3546656;40;20061;-76
2021/07/20 11:38:44;;;;;;;1.92;1.17;;;;;;;41.22;26.30;101545.09;3552273;40;20112;-76
2021/07/20 11:41:17;;;;;;;2.95;1.42;;;;;;;41.48;25.99;101544.16;3557302;40;20075;-77
2021/07/20 11:43:50;;;;;;;4.60;1.45;;;;;;;41.76;26.13;101542.91;3556951;40;20456;-76
2021/07/20 11:46:22;;;;;;;5.47;1.20;;;;;;;41.90;26.14;101550.88;3557608;40;20049;-76
2021/07/20 11:49:00;;;;;;;3.33;1.10;;;;;;;42.02;24.93;101541.91;3550514;40;20057;-76
2021/07/20 11:51:35;;;;;;;3.38;1.30;;;;;;;42.08;25.41;101547.38;3551250;40;20105;-76
2021/07/20 11:54:11;;;;;;;1.77;1.00;;;;;;;42.19;24.76;101549.41;3550959;40;20053;-76
2021/07/20 11:56:59;;;;;;;2.13;1.20;;;;;;;42.25;25.01;101536.69;3541777;40;20147;-76
2021/07/20 12:00:00;;;;;;;2.25;1.27;;;;;;;42.30;25.83;101533.28;3548930;40;20061;-76
2021/07/20 12:03:03;;;;;;;2.25;1.10;;;;;;;42.40;26.18;101533.59;3556383;40;21031;-77
2021/07/20 12:05:48;;;;;;;3.75;1.42;;;;;;;42.42;23.93;101534.22;3554762;40;20051;-77
2021/07/20 12:08:15;;;;;;;2.83;1.25;;;;;;;42.42;23.27;101537.78;3542633;40;20053;-76
2021/07/20 12:10:44;;;;;;;3.85;1.38;;;;;;;42.57;23.68;101545.69;3547350;40;20068;-77
2021/07/20 12:13:16;;;;;;;2.95;1.20;;;;;;;42.62;24.22;101537.63;3556793;40;20386;-77
2021/07/20 12:15:45;;;;;;;3.45;1.58;;;;;;;42.63;23.15;101541.22;3554564;40;20049;-77
2021/07/20 12:18:12;;;;;;;3.45;1.30;;;;;;;42.71;22.42;101541.78;3563696;40;20057;-77
2021/07/20 12:20:41;;;;;;;3.92;1.30;;;;;;;42.86;23.39;101546.06;3557385;40;20049;-76
2021/07/20 12:23:10;;;;;;;5.03;1.63;;;;;;;42.93;22.82;101547.66;3543175;40;20061;-77
2021/07/20 12:25:38;;;;;;;2.60;0.90;;;;;;;42.98;22.78;101553.28;3555539;40;20145;-76
2021/07/20 12:28:06;;;;;;;2.15;1.10;;;;;;;43.05;22.46;101552.44;3563501;40;20057;-77
2021/07/20 12:30:33;;;;;;;2.55;0.95;;;;;;;43.12;22.55;101547.69;3564740;40;20060;-77
2021/07/20 12:33:10;;;;;;;2.28;1.20;;;;;;;43.31;22.69;101546.59;3564047;40;20067;-78
2021/07/20 12:35:38;;;;;;;2.15;1.23;;;;;;;43.40;22.21;101549.88;3549259;40;20380;-77
2021/07/20 12:38:08;;;;;;;2.78;1.20;;;;;;;43.56;22.46;101548.41;3557440;40;20131;-76
2021/07/20 12:40:37;;;;;;;2.45;1.30;;;;;;;43.69;21.48;101542.69;3550178;40;20656;-77
2021/07/20 12:43:13;;;;;;;2.83;1.20;;;;;;;43.98;22.27;101547.34;3557766;40;20099;-77
2021/07/20 12:45:44;;;;;;;3.47;1.38;;;;;;;44.13;22.20;101543.31;3547767;40;20069;-77
2021/07/20 12:48:28;;;;;;;2.10;1.20;;;;;;;44.44;22.91;101537.47;3555866;40;20327;-77
2021/07/20 12:51:07;;;;;;;1.70;1.08;;;;;;;44.56;21.93;101544.91;3547474;40;20060;-77
2021/07/20 12:53:41;;;;;;;1.77;1.20;;;;;;;44.71;21.19;101534.25;3558469;40;20096;-77
2021/07/20 12:56:16;;;;;;;2.55;1.17;;;;;;;44.92;21.29;101535.56;3552506;40;20063;-77
2021/07/20 12:58:44;;;;;;;2.92;1.10;;;;;;;44.99;20.89;101539.88;3553479;40;20065;-77
2021/07/20 13:01:16;;;;;;;2.60;1.25;;;;;;;45.15;20.75;101541.00;3567239;40;20521;-77
2021/07/20 13:03:45;;;;;;;2.55;1.27;;;;;;;45.28;20.09;101539.91;3549444;40;20062;-77
2021/07/20 13:06:20;;;;;;;5.38;1.10;;;;;;;45.47;21.33;101540.56;3557487;40;20170;-77
2021/07/20 13:08:52;;;;;;;2.97;1.50;;;;;;;45.60;20.43;101547.72;3542571;40;20059;-77
2021/07/20 13:11:20;;;;;;;2.15;1.30;;;;;;;45.62;19.61;101545.53;3565968;40;20076;-76
2021/07/20 13:13:48;;;;;;;1.77;1.30;;;;;;;45.70;20.62;101547.91;3557807;40;20600;-77
2021/07/20 13:16:21;;;;;;;3.20;1.30;;;;;;;45.88;21.03;101544.94;3556106;40;24705;-77
2021/07/20 13:18:49;;;;;;;3.58;1.30;;;;;;;45.93;20.01;101539.50;3558193;40;20557;-77
2021/07/20 13:21:19;;;;;;;2.28;1.40;;;;;;;46.08;20.11;101541.66;3568095;40;20064;-77
2021/07/20 13:23:48;;;;;;;2.47;1.10;;;;;;;46.23;19.50;101549.38;3556046;40;20950;-76
2021/07/20 13:26:25;;;;;;;1.63;1.17;;;;;;;46.50;20.73;101547.59;3546674;40;20540;-77
2021/07/20 13:28:57;;;;;;;2.97;1.38;;;;;;;46.53;18.40;101546.28;3553657;40;20065;-77
2021/07/20 13:31:29;;;;;;;2.67;1.40;;;;;;;46.67;19.21;101546.75;3563980;40;20073;-77
2021/07/20 13:33:57;;;;;;;2.30;1.33;;;;;;;46.65;19.01;101544.25;3556862;40;20080;-77
2021/07/20 13:36:24;;;;;;;2.03;1.35;;;;;;;46.68;18.73;101545.66;3558020;40;20055;-76
2021/07/20 13:38:53;;;;;;;3.45;1.35;;;;;;;46.57;18.65;101547.44;3551989;40;20170;-77
2021/07/20 13:41:22;;;;;;;4.80;1.50;;;;;;;46.44;19.23;101548.63;3542606;40;20069;-77
2021/07/20 13:43:51;;;;;;;1.63;1.40;;;;;;;46.35;18.92;101554.84;3558680;40;20132;-77
2021/07/20 13:46:21;;;;;;;2.78;1.42;;;;;;;46.39;18.71;101554.09;3551955;40;20131;-77
2021/07/20 13:48:50;;;;;;;2.33;1.48;;;;;;;46.39;18.42;101554.09;3567928;40;20075;-77
2021/07/20 13:51:20;;;;;;;5.20;1.48;;;;;;;46.46;18.44;101565.78;3533537;40;20143;-77
2021/07/20 13:53:53;;;;;;;2.83;1.60;;;;;;;46.59;19.54;101549.94;3565316;40;20056;-77
2021/07/20 13:56:32;;;;;;;2.05;1.17;;;;;;;46.65;19.85;101555.31;3553377;40;20068;-77
2021/07/20 13:59:02;;;;;;;3.53;1.50;;;;;;;46.60;18.97;101565.47;3545934;40;20831;-77
2021/07/20 14:01:30;;;;;;;2.42;1.55;;;;;;;46.60;18.42;101551.66;3566601;40;20321;-77
2021/07/20 14:03:58;;;;;;;1.88;1.38;;;;;;;46.64;18.39;101556.41;3554948;40;20161;-77
2021/07/20 14:06:25;;;;;;;3.97;1.77;;;;;;;46.65;18.25;101560.00;3559731;40;20758;-77
2021/07/20 14:08:53;;;;;;;1.90;1.23;;;;;;;46.46;18.25;101563.03;3564356;40;20061;-77
2021/07/20 14:11:20;;;;;;;2.60;1.35;;;;;;;46.30;18.37;101561.13;3564081;40;21761;-77
2021/07/20 14:13:50;;;;;;;2.50;1.60;;;;;;;46.24;18.37;101562.97;3548191;40;20065;-77
2021/07/20 14:16:18;;;;;;;2.25;1.48;;;;;;;46.18;18.72;101555.69;3557419;40;20073;-77
2021/07/20 14:18:50;;;;;;;3.65;1.70;;;;;;;46.16;19.08;101557.03;3563100;40;20050;-77
2021/07/20 14:21:30;;;;;;;3.17;1.70;;;;;;;46.15;19.29;101561.72;3542669;40;20053;-77
2021/07/20 14:24:16;;;;;;;4.95;1.35;;;;;;;46.18;19.85;101563.13;3551027;40;20064;-77
2021/07/20 14:26:49;;;;;;;4.93;1.73;;;;;;;46.17;18.84;101561.44;3540616;40;20067;-77
2021/07/20 14:29:37;;;;;;;2.10;1.50;;;;;;;46.12;18.64;101558.56;3552899;40;20056;-77
2021/07/20 14:32:18;;;;;;;1.85;1.40;;;;;;;46.02;19.21;101559.25;3555987;40;20072;-77
2021/07/20 14:34:53;;;;;;;2.13;1.30;;;;;;;45.85;19.21;101556.47;3556191;40;20067;-77
2021/07/20 14:37:41;;;;;;;;;;;;;;;46.00;20.56;101561.44;3565402;40;20065;-77
2021/07/20 14:40:08;;;;;;;4.40;1.63;;;;;;;45.90;18.26;101559.31;3556048;40;20624;-77
2021/07/20 14:42:36;;;;;;;3.70;1.30;;;;;;;45.88;19.29;101560.66;3561024;40;20056;-77
2021/07/20 14:45:09;;;;;;;4.43;1.67;;;;;;;45.93;18.75;101557.97;3567883;40;20509;-77
2021/07/20 14:47:41;;;;;;;3.28;1.67;;;;;;;46.02;19.13;101562.84;3555075;40;20065;-77
2021/07/20 14:50:17;;;;;;;4.20;2.08;;;;;;;46.18;18.69;101560.34;3560174;40;20263;-77
2021/07/20 14:52:44;;;;;;;3.67;1.77;;;;;;;46.22;18.11;101556.00;3553039;40;20073;-77
2021/07/20 14:55:18;;;;;;;3.65;1.60;;;;;;;46.36;18.36;101567.56;3557575;40;20057;-77
2021/07/20 14:58:03;;;;;;;3.13;1.85;;;;;;;46.49;18.88;101573.56;3542423;40;20064;-77
2021/07/20 15:00:48;;;;;;;;;;;;;;;46.64;19.95;101563.84;3549633;40;20064;-77
2021/07/20 15:03:37;;;;;;;2.38;1.55;;;;;;;46.62;19.74;101568.81;3554577;40;20033;-77
2021/07/20 15:06:09;;;;;;;3.72;1.83;;;;;;;46.58;19.12;101570.41;3551112;40;20132;-77
2021/07/20 15:08:41;;;;;;;3.47;1.60;;;;;;;46.56;18.58;101576.19;3568743;40;20100;-77
2021/07/20 15:11:26;;;;;;;2.33;1.70;;;;;;;46.67;19.40;101574.41;3556900;40;20341;-77
2021/07/20 15:14:26;;;;;;;2.80;1.77;;;;;;;46.66;18.91;101573.56;3552200;40;20069;-77
2021/07/20 15:16:57;;;;;;;4.15;2.00;;;;;;;46.48;17.46;101571.88;3560654;40;20826;-77
2021/07/20 15:19:27;;;;;;;4.88;2.15;;;;;;;46.30;18.05;101572.16;3551161;40;20539;-77
2021/07/20 15:21:59;;;;;;;4.22;1.75;;;;;;;46.02;18.63;101568.34;3559570;40;20114;-77
2021/07/20 15:24:31;;;;;;;2.67;1.80;;;;;;;45.79;18.47;101557.47;3559292;40;20571;-77
2021/07/20 15:27:00;;;;;;;3.45;1.70;;;;;;;45.66;18.59;101574.31;3557512;40;20099;-77
2021/07/20 15:29:28;;;;;;;4.78;1.85;;;;;;;45.55;18.79;101568.59;3568214;40;20065;-77
2021/07/20 15:31:56;;;;;;;2.08;1.52;;;;;;;45.49;18.85;101566.81;3551987;40;20409;-77
2021/07/20 15:34:32;;;;;;;4.97;2.15;;;;;;;45.49;19.25;101563.25;3556313;40;20041;-77
2021/07/20 15:37:18;;;;;;;4.03;2.08;;;;;;;45.47;19.31;101560.72;3565239;40;20053;-77
2021/07/20 15:39:48;;;;;;;3.45;1.73;;;;;;;45.44;18.83;101561.22;3567306;40;20057;-77
2021/07/20 15:42:39;;;;;;;4.85;1.95;;;;;;;45.55;19.24;101560.31;3556156;40;20880;-77
2021/07/20 15:45:21;;;;;;;2.70;1.73;;;;;;;45.54;18.91;101566.94;3565049;40;20096;-77
2021/07/20 15:47:53;;;;;;;6.28;1.80;;;;;;;45.38;18.51;101562.19;3553438;40;20061;-77
2021/07/20 15:50:23;;;;;;;5.05;2.00;;;;;;;45.31;19.38;101553.19;3558926;40;20083;-76
2021/07/20 15:52:55;;;;;;;4.15;1.70;;;;;;;45.22;18.94;101558.28;3559459;40;20061;-77
2021/07/20 15:55:24;;;;;;;2.65;1.60;;;;;;;45.07;18.56;101555.22;3546260;40;20071;-77
2021/07/20 15:57:55;;;;;;;3.22;1.58;;;;;;;44.93;18.97;101546.31;3565641;40;20539;-77
2021/07/20 16:00:25;;;;;;;2.90;1.60;;;;;;;44.90;19.08;101555.06;3566107;40;20132;-76
2021/07/20 16:02:52;;;;;;;3.92;1.42;;;;;;;44.73;19.00;101555.00;3557158;40;20077;-77
2021/07/20 16:05:20;;;;;;;4.43;2.13;;;;;;;44.63;18.56;101549.25;3554308;40;20088;-77
2021/07/20 16:07:49;;;;;;;4.00;1.80;;;;;;;44.47;19.16;101556.28;3543801;40;20061;-77
2021/07/20 16:10:21;;;;;;;7.57;2.03;;;;;;;44.32;19.44;101549.59;3555389;40;20089;-76
2021/07/20 16:12:50;;;;;;;4.65;1.90;;;;;;;44.06;19.16;101553.59;3566556;40;20065;-77
2021/07/20 16:15:38;;;;;;;7.22;1.60;;;;;;;43.76;20.39;101554.47;3550970;40;20395;-77
2021/07/20 16:18:11;;;;;;;4.18;2.10;;;;;;;43.34;20.53;101553.53;3545434;40;20424;-77
2021/07/20 16:20:41;;;;;;;2.80;1.90;;;;;;;43.07;19.86;101551.13;3563056;40;20063;-77
2021/07/20 16:23:10;;;;;;;2.90;1.63;;;;;;;42.81;20.84;101554.13;3557635;40;20053;-77
2021/07/20 16:25:38;;;;;;;4.28;1.92;;;;;;;42.58;21.35;101552.00;3559465;40;20101;-77
2021/07/20 16:28:09;;;;;;;4.55;1.80;;;;;;;42.44;21.71;101551.31;3548805;40;20081;-76
2021/07/20 16:30:42;;;;;;;3.40;1.92;;;;;;;42.25;21.87;101558.66;3555060;40;20089;-76
2021/07/20 16:33:11;;;;;;;4.75;2.25;;;;;;;42.01;22.33;101551.22;3558654;40;20049;-76
2021/07/20 16:35:39;;;;;;;3.75;1.70;;;;;;;41.87;21.35;101562.31;3555188;40;20060;-77
2021/07/20 16:38:10;;;;;;;2.80;1.45;;;;;;;41.73;21.87;101549.69;3554139;40;20057;-77
2021/07/20 16:40:42;;;;;;;4.65;1.88;;;;;;;41.62;21.81;101564.09;3557519;40;20071;-77
2021/07/20 16:43:13;;;;;;;4.43;2.20;;;;;;;41.47;22.15;101557.03;3551306;40;20064;-77
2021/07/20 16:45:42;;;;;;;2.97;1.70;;;;;;;41.33;22.38;101544.41;3535498;40;20078;-76
2021/07/20 16:48:12;;;;;;;3.88;1.48;;;;;;;41.16;22.69;101556.88;3569168;40;20402;-76
2021/07/20 16:50:39;;;;;;;7.30;2.00;;;;;;;41.00;22.77;101560.13;3553592;40;20076;-77
2021/07/20 16:53:07;;;;;;;5.50;1.80;;;;;;;40.81;22.53;101557.19;3566751;40;20045;-77
2021/07/20 16:55:34;;;;;;;3.25;1.80;;;;;;;40.61;23.69;101556.41;3563654;40;20064;-77
2021/07/20 16:58:01;;;;;;;2.63;1.70;;;;;;;40.39;23.50;101553.84;3545215;40;20140;-76
2021/07/20 17:00:29;;;;;;;2.13;1.38;;;;;;;40.17;23.43;101557.84;3559158;40;20386;-77
2021/07/20 17:02:59;;;;;;;3.92;1.67;;;;;;;39.95;23.72;101552.53;3562311;40;20150;-77
2021/07/20 17:05:29;;;;;;;3.50;2.00;;;;;;;39.71;24.21;101544.91;3549680;40;20068;-77
2021/07/20 17:08:07;;;;;;;3.53;1.70;;;;;;;39.49;24.64;101546.94;3564642;40;20108;-77
2021/07/20 17:10:35;;;;;;;5.38;2.05;;;;;;;39.30;24.57;101545.81;3553466;40;20358;-77
2021/07/20 17:13:05;;;;;;;3.92;1.70;;;;;;;39.09;24.76;101554.91;3570009;40;20049;-78
2021/07/20 17:15:34;;;;;;;5.10;1.98;;;;;;;38.78;25.69;101549.91;3544040;40;20151;-78
2021/07/20 17:18:07;;;;;;;3.70;1.80;;;;;;;38.51;25.54;101558.91;3565328;40;20073;-79
2021/07/20 17:20:35;;;;;;;6.70;2.00;;;;;;;38.25;25.69;101554.88;3556389;40;20174;-79
2021/07/20 17:23:02;;;;;;;4.28;2.10;;;;;;;38.08;26.13;101553.50;3568740;40;20138;-79
2021/07/20 17:25:30;;;;;;;5.25;1.90;;;;;;;37.96;26.61;101564.03;3555455;40;20065;-78
2021/07/20 17:28:08;;;;;;;4.70;1.92;;;;;;;37.86;26.47;101553.47;3569648;40;20422;-78
2021/07/20 17:30:35;;;;;;;3.53;1.85;;;;;;;37.78;26.57;101556.28;3566195;40;20086;-79
2021/07/20 17:33:28;;;;;;;3.40;1.95;;;;;;;37.76;26.37;101552.91;3559063;40;20081;-79
2021/07/20 17:35:57;;;;;;;3.90;1.73;;;;;;;37.67;26.89;101540.44;3556565;40;20365;-79
2021/07/20 17:38:29;;;;;;;3.20;1.77;;;;;;;37.65;26.72;101553.41;3568345;40;20131;-78
2021/07/20 17:41:12;;;;;;;5.93;2.30;;;;;;;37.59;26.89;101556.91;3552385;40;20112;-79
2021/07/20 17:43:44;;;;;;;5.03;1.90;;;;;;;37.52;26.78;101553.28;3550449;40;20069;-78
2021/07/20 17:46:25;;;;;;;4.50;2.05;;;;;;;37.44;26.72;101551.50;3569508;40;20069;-79
2021/07/20 17:48:57;;;;;;;4.20;1.60;;;;;;;37.31;27.13;101546.72;3550175;40;20072;-78
2021/07/20 17:51:41;;;;;;;5.35;1.88;;;;;;;37.22;27.55;101547.00;3558917;40;20063;-79